sensor_id;sensor_type;location;lat;lon;timestamp;P1;durP1;ratioP1;P2;durP2;ratioP2
55368;SDS011;41247;49.736;8.752;2023-09-19T00:01:11;5.63;;;1.83;;
55368;SDS011;41247;49.736;8.752;2023-09-19T00:04:51;3.30;;;1.50;;
55368;SDS011;41247;49.736;8.752;2023-09-19T00:08:32;2.70;;;1.65;;
55368;SDS011;41247;49.736;8.752;2023-09-19T00:12:13;2.67;;;1.60;;
55368;SDS011;41247;49.736;8.752;2023-09-19T00:15:53;3.70;;;1.58;;
55368;SDS011;41247;49.736;8.752;2023-09-19T00:19:35;7.13;;;1.50;;
55368;SDS011;41247;49.736;8.752;2023-09-19T00:23:16;6.13;;;2.03;;
55368;SDS011;41247;49.736;8.752;2023-09-19T00:26:56;3.80;;;1.95;;
55368;SDS011;41247;49.736;8.752;2023-09-19T00:30:37;4.90;;;2.05;;
55368;SDS011;41247;49.736;8.752;2023-09-19T00:34:18;6.78;;;1.88;;
55368;SDS011;41247;49.736;8.752;2023-09-19T00:37:58;5.95;;;2.10;;
55368;SDS011;41247;49.736;8.752;2023-09-19T00:41:39;5.45;;;1.80;;
55368;SDS011;41247;49.736;8.752;2023-09-19T00:45:19;3.70;;;1.90;;
55368;SDS011;41247;49.736;8.752;2023-09-19T00:49:00;3.58;;;2.10;;
55368;SDS011;41247;49.736;8.752;2023-09-19T00:52:42;4.03;;;1.92;;
55368;SDS011;41247;49.736;8.752;2023-09-19T00:56:23;4.82;;;2.10;;
55368;SDS011;41247;49.736;8.752;2023-09-19T01:00:05;4.05;;;2.17;;
55368;SDS011;41247;49.736;8.752;2023-09-19T01:03:47;8.93;;;2.10;;
55368;SDS011;41247;49.736;8.752;2023-09-19T01:07:28;5.13;;;2.00;;
55368;SDS011;41247;49.736;8.752;2023-09-19T01:11:13;7.25;;;1.83;;
55368;SDS011;41247;49.736;8.752;2023-09-19T01:15:06;3.78;;;1.98;;
55368;SDS011;41247;49.736;8.752;2023-09-19T01:19:30;4.20;;;1.70;;
55368;SDS011;41247;49.736;8.752;2023-09-19T01:28:15;6.25;;;2.40;;
55368;SDS011;41247;49.736;8.752;2023-09-19T01:32:06;8.25;;;2.40;;
55368;SDS011;41247;49.736;8.752;2023-09-19T01:35:48;6.88;;;3.13;;
55368;SDS011;41247;49.736;8.752;2023-09-19T01:39:29;7.25;;;3.53;;
55368;SDS011;41247;49.736;8.752;2023-09-19T01:43:27;6.95;;;4.20;;
55368;SDS011;41247;49.736;8.752;2023-09-19T01:47:32;8.13;;;4.50;;
55368;SDS011;41247;49.736;8.752;2023-09-19T01:51:32;5.95;;;4.05;;
55368;SDS011;41247;49.736;8.752;2023-09-19T01:55:37;7.57;;;4.30;;
55368;SDS011;41247;49.736;8.752;2023-09-19T01:59:25;5.45;;;3.88;;
55368;SDS011;41247;49.736;8.752;2023-09-19T02:03:14;9.15;;;4.40;;
55368;SDS011;41247;49.736;8.752;2023-09-19T02:06:55;10.18;;;4.55;;
55368;SDS011;41247;49.736;8.752;2023-09-19T02:10:35;10.10;;;4.72;;
55368;SDS011;41247;49.736;8.752;2023-09-19T02:14:16;9.23;;;5.05;;
55368;SDS011;41247;49.736;8.752;2023-09-19T02:17:57;10.13;;;5.32;;
55368;SDS011;41247;49.736;8.752;2023-09-19T02:21:39;9.75;;;6.38;;
55368;SDS011;41247;49.736;8.752;2023-09-19T02:25:20;11.15;;;6.60;;
55368;SDS011;41247;49.736;8.752;2023-09-19T02:29:00;10.23;;;7.30;;
55368;SDS011;41247;49.736;8.752;2023-09-19T02:32:41;14.25;;;8.38;;
55368;SDS011;41247;49.736;8.752;2023-09-19T02:36:22;11.80;;;8.27;;
55368;SDS011;41247;49.736;8.752;2023-09-19T02:40:02;10.75;;;8.10;;
55368;SDS011;41247;49.736;8.752;2023-09-19T02:43:44;11.18;;;6.93;;
55368;SDS011;41247;49.736;8.752;2023-09-19T02:47:24;13.13;;;7.35;;
55368;SDS011;41247;49.736;8.752;2023-09-19T02:51:05;13.45;;;7.63;;
55368;SDS011;41247;49.736;8.752;2023-09-19T02:54:46;8.75;;;6.55;;
55368;SDS011;41247;49.736;8.752;2023-09-19T02:58:26;11.18;;;7.55;;
55368;SDS011;41247;49.736;8.752;2023-09-19T03:02:07;13.88;;;9.05;;
55368;SDS011;41247;49.736;8.752;2023-09-19T03:05:47;17.58;;;9.98;;
55368;SDS011;41247;49.736;8.752;2023-09-19T03:09:28;13.73;;;10.73;;
55368;SDS011;41247;49.736;8.752;2023-09-19T03:13:09;19.67;;;10.20;;
55368;SDS011;41247;49.736;8.752;2023-09-19T03:16:49;14.18;;;9.38;;
55368;SDS011;41247;49.736;8.752;2023-09-19T03:20:30;17.80;;;9.18;;
55368;SDS011;41247;49.736;8.752;2023-09-19T03:24:10;15.60;;;9.50;;
55368;SDS011;41247;49.736;8.752;2023-09-19T03:27:51;12.10;;;8.75;;
55368;SDS011;41247;49.736;8.752;2023-09-19T03:31:32;13.73;;;8.65;;
55368;SDS011;41247;49.736;8.752;2023-09-19T03:35:12;10.88;;;7.43;;
55368;SDS011;41247;49.736;8.752;2023-09-19T03:38:53;10.43;;;6.97;;
55368;SDS011;41247;49.736;8.752;2023-09-19T03:42:34;14.80;;;7.50;;
55368;SDS011;41247;49.736;8.752;2023-09-19T03:46:14;11.75;;;6.70;;
55368;SDS011;41247;49.736;8.752;2023-09-19T03:49:55;12.52;;;6.88;;
55368;SDS011;41247;49.736;8.752;2023-09-19T03:53:36;9.63;;;6.20;;
55368;SDS011;41247;49.736;8.752;2023-09-19T03:57:16;14.82;;;6.97;;
55368;SDS011;41247;49.736;8.752;2023-09-19T04:00:57;12.02;;;5.93;;
55368;SDS011;41247;49.736;8.752;2023-09-19T04:04:38;9.90;;;6.13;;
55368;SDS011;41247;49.736;8.752;2023-09-19T04:08:18;13.82;;;6.45;;
55368;SDS011;41247;49.736;8.752;2023-09-19T04:11:59;11.05;;;6.25;;
55368;SDS011;41247;49.736;8.752;2023-09-19T04:15:39;13.65;;;7.40;;
55368;SDS011;41247;49.736;8.752;2023-09-19T04:19:20;13.18;;;7.93;;
55368;SDS011;41247;49.736;8.752;2023-09-19T04:23:00;13.00;;;6.93;;
55368;SDS011;41247;49.736;8.752;2023-09-19T04:26:41;15.93;;;8.05;;
55368;SDS011;41247;49.736;8.752;2023-09-19T04:30:22;13.93;;;7.80;;
55368;SDS011;41247;49.736;8.752;2023-09-19T04:34:03;12.95;;;7.78;;
55368;SDS011;41247;49.736;8.752;2023-09-19T04:37:44;11.25;;;7.65;;
55368;SDS011;41247;49.736;8.752;2023-09-19T04:41:25;14.27;;;8.02;;
55368;SDS011;41247;49.736;8.752;2023-09-19T04:45:06;18.70;;;9.18;;
55368;SDS011;41247;49.736;8.752;2023-09-19T04:48:48;15.10;;;8.98;;
55368;SDS011;41247;49.736;8.752;2023-09-19T04:57:15;19.17;;;9.85;;
55368;SDS011;41247;49.736;8.752;2023-09-19T05:05:31;19.85;;;9.90;;
55368;SDS011;41247;49.736;8.752;2023-09-19T05:09:12;18.15;;;9.43;;
55368;SDS011;41247;49.736;8.752;2023-09-19T05:12:55;19.00;;;10.15;;
55368;SDS011;41247;49.736;8.752;2023-09-19T05:16:35;20.10;;;10.32;;
55368;SDS011;41247;49.736;8.752;2023-09-19T05:20:16;16.95;;;9.15;;
55368;SDS011;41247;49.736;8.752;2023-09-19T05:23:58;18.85;;;10.45;;
55368;SDS011;41247;49.736;8.752;2023-09-19T05:27:46;21.80;;;9.80;;
55368;SDS011;41247;49.736;8.752;2023-09-19T05:31:27;18.98;;;9.20;;
55368;SDS011;41247;49.736;8.752;2023-09-19T05:35:07;19.02;;;8.75;;
55368;SDS011;41247;49.736;8.752;2023-09-19T05:38:48;15.02;;;8.30;;
55368;SDS011;41247;49.736;8.752;2023-09-19T05:42:29;15.48;;;8.77;;
55368;SDS011;41247;49.736;8.752;2023-09-19T05:46:09;20.02;;;7.90;;
55368;SDS011;41247;49.736;8.752;2023-09-19T05:49:50;18.33;;;8.40;;
55368;SDS011;41247;49.736;8.752;2023-09-19T05:53:30;15.55;;;7.28;;
55368;SDS011;41247;49.736;8.752;2023-09-19T05:57:15;13.88;;;7.70;;
55368;SDS011;41247;49.736;8.752;2023-09-19T06:00:56;12.40;;;7.53;;
55368;SDS011;41247;49.736;8.752;2023-09-19T06:04:36;12.75;;;7.40;;
55368;SDS011;41247;49.736;8.752;2023-09-19T06:08:21;13.07;;;7.15;;
55368;SDS011;41247;49.736;8.752;2023-09-19T06:12:01;13.45;;;7.40;;
55368;SDS011;41247;49.736;8.752;2023-09-19T06:15:42;15.38;;;7.25;;
55368;SDS011;41247;49.736;8.752;2023-09-19T06:19:23;13.52;;;7.30;;
55368;SDS011;41247;49.736;8.752;2023-09-19T06:23:04;11.65;;;6.60;;
55368;SDS011;41247;49.736;8.752;2023-09-19T06:26:45;11.93;;;5.90;;
55368;SDS011;41247;49.736;8.752;2023-09-19T06:30:25;11.45;;;6.10;;
55368;SDS011;41247;49.736;8.752;2023-09-19T06:34:06;11.70;;;6.15;;
55368;SDS011;41247;49.736;8.752;2023-09-19T06:37:49;14.30;;;6.55;;
55368;SDS011;41247;49.736;8.752;2023-09-19T06:41:30;11.40;;;6.30;;
55368;SDS011;41247;49.736;8.752;2023-09-19T06:45:12;9.55;;;5.90;;
55368;SDS011;41247;49.736;8.752;2023-09-19T06:49:09;13.35;;;5.53;;
55368;SDS011;41247;49.736;8.752;2023-09-19T06:53:11;11.13;;;4.97;;
55368;SDS011;41247;49.736;8.752;2023-09-19T06:56:51;10.40;;;4.80;;
55368;SDS011;41247;49.736;8.752;2023-09-19T07:00:35;9.02;;;4.25;;
55368;SDS011;41247;49.736;8.752;2023-09-19T07:04:16;12.18;;;4.07;;
55368;SDS011;41247;49.736;8.752;2023-09-19T07:07:57;12.10;;;4.00;;
55368;SDS011;41247;49.736;8.752;2023-09-19T07:11:39;8.20;;;3.53;;
55368;SDS011;41247;49.736;8.752;2023-09-19T07:15:19;8.57;;;3.28;;
55368;SDS011;41247;49.736;8.752;2023-09-19T07:19:00;7.57;;;3.30;;
55368;SDS011;41247;49.736;8.752;2023-09-19T07:22:41;9.50;;;3.65;;
55368;SDS011;41247;49.736;8.752;2023-09-19T07:26:21;6.85;;;2.97;;
55368;SDS011;41247;49.736;8.752;2023-09-19T07:30:02;8.65;;;3.20;;
55368;SDS011;41247;49.736;8.752;2023-09-19T07:33:43;10.93;;;3.15;;
55368;SDS011;41247;49.736;8.752;2023-09-19T07:37:23;7.65;;;3.10;;
55368;SDS011;41247;49.736;8.752;2023-09-19T07:41:04;7.13;;;2.67;;
55368;SDS011;41247;49.736;8.752;2023-09-19T07:44:45;9.48;;;2.78;;
55368;SDS011;41247;49.736;8.752;2023-09-19T07:48:25;7.47;;;2.90;;
55368;SDS011;41247;49.736;8.752;2023-09-19T07:52:06;8.95;;;2.70;;
55368;SDS011;41247;49.736;8.752;2023-09-19T07:55:46;6.15;;;2.20;;
55368;SDS011;41247;49.736;8.752;2023-09-19T07:59:27;8.13;;;2.05;;
55368;SDS011;41247;49.736;8.752;2023-09-19T08:03:08;8.18;;;1.83;;
55368;SDS011;41247;49.736;8.752;2023-09-19T08:06:48;7.82;;;2.03;;
55368;SDS011;41247;49.736;8.752;2023-09-19T08:10:30;6.50;;;2.25;;
55368;SDS011;41247;49.736;8.752;2023-09-19T08:14:10;11.40;;;2.50;;
55368;SDS011;41247;49.736;8.752;2023-09-19T08:17:51;9.10;;;1.92;;
55368;SDS011;41247;49.736;8.752;2023-09-19T08:21:32;8.65;;;2.08;;
55368;SDS011;41247;49.736;8.752;2023-09-19T08:25:12;6.90;;;1.92;;
55368;SDS011;41247;49.736;8.752;2023-09-19T08:28:55;9.70;;;2.08;;
55368;SDS011;41247;49.736;8.752;2023-09-19T08:32:35;4.57;;;1.80;;
55368;SDS011;41247;49.736;8.752;2023-09-19T08:36:16;7.35;;;1.95;;
55368;SDS011;41247;49.736;8.752;2023-09-19T08:39:57;7.15;;;1.85;;
55368;SDS011;41247;49.736;8.752;2023-09-19T08:43:37;6.90;;;1.75;;
55368;SDS011;41247;49.736;8.752;2023-09-19T08:47:19;16.08;;;2.20;;
55368;SDS011;41247;49.736;8.752;2023-09-19T08:51:42;9.70;;;1.83;;
55368;SDS011;41247;49.736;8.752;2023-09-19T08:55:28;10.90;;;2.08;;
55368;SDS011;41247;49.736;8.752;2023-09-19T08:59:09;8.05;;;1.55;;
55368;SDS011;41247;49.736;8.752;2023-09-19T09:02:50;8.63;;;1.48;;
55368;SDS011;41247;49.736;8.752;2023-09-19T09:06:31;8.63;;;1.98;;
55368;SDS011;41247;49.736;8.752;2023-09-19T09:10:14;10.90;;;1.80;;
55368;SDS011;41247;49.736;8.752;2023-09-19T09:13:55;4.43;;;1.75;;
55368;SDS011;41247;49.736;8.752;2023-09-19T09:17:35;5.60;;;1.73;;
55368;SDS011;41247;49.736;8.752;2023-09-19T09:21:17;9.55;;;1.73;;
55368;SDS011;41247;49.736;8.752;2023-09-19T09:24:58;5.13;;;1.40;;
55368;SDS011;41247;49.736;8.752;2023-09-19T09:28:44;12.35;;;1.98;;
55368;SDS011;41247;49.736;8.752;2023-09-19T09:32:29;10.13;;;1.90;;
55368;SDS011;41247;49.736;8.752;2023-09-19T09:36:10;5.13;;;1.55;;
55368;SDS011;41247;49.736;8.752;2023-09-19T09:40:01;6.18;;;1.73;;
55368;SDS011;41247;49.736;8.752;2023-09-19T09:43:42;8.85;;;1.98;;
55368;SDS011;41247;49.736;8.752;2023-09-19T09:47:42;7.63;;;1.98;;
55368;SDS011;41247;49.736;8.752;2023-09-19T09:55:11;11.15;;;2.03;;
55368;SDS011;41247;49.736;8.752;2023-09-19T09:58:51;8.80;;;2.40;;
55368;SDS011;41247;49.736;8.752;2023-09-19T10:02:35;9.10;;;2.20;;
55368;SDS011;41247;49.736;8.752;2023-09-19T10:06:16;12.30;;;1.65;;
55368;SDS011;41247;49.736;8.752;2023-09-19T10:09:58;7.35;;;1.83;;
55368;SDS011;41247;49.736;8.752;2023-09-19T10:13:41;14.73;;;1.70;;
55368;SDS011;41247;49.736;8.752;2023-09-19T10:17:23;8.73;;;1.98;;
55368;SDS011;41247;49.736;8.752;2023-09-19T10:21:05;8.63;;;2.10;;
55368;SDS011;41247;49.736;8.752;2023-09-19T10:24:49;7.35;;;2.30;;
55368;SDS011;41247;49.736;8.752;2023-09-19T10:28:30;9.30;;;1.80;;
55368;SDS011;41247;49.736;8.752;2023-09-19T10:32:12;7.03;;;1.70;;
55368;SDS011;41247;49.736;8.752;2023-09-19T10:35:56;7.07;;;1.80;;
55368;SDS011;41247;49.736;8.752;2023-09-19T10:39:39;9.10;;;2.30;;
55368;SDS011;41247;49.736;8.752;2023-09-19T10:43:20;8.77;;;1.77;;
55368;SDS011;41247;49.736;8.752;2023-09-19T10:47:06;8.00;;;1.80;;
55368;SDS011;41247;49.736;8.752;2023-09-19T10:51:06;12.65;;;1.95;;
55368;SDS011;41247;49.736;8.752;2023-09-19T10:54:52;10.77;;;1.85;;
55368;SDS011;41247;49.736;8.752;2023-09-19T10:58:35;7.50;;;1.80;;
55368;SDS011;41247;49.736;8.752;2023-09-19T11:02:16;9.75;;;2.30;;
55368;SDS011;41247;49.736;8.752;2023-09-19T11:06:01;5.97;;;1.58;;
55368;SDS011;41247;49.736;8.752;2023-09-19T11:09:49;10.20;;;1.65;;
55368;SDS011;41247;49.736;8.752;2023-09-19T11:13:31;10.70;;;1.88;;
55368;SDS011;41247;49.736;8.752;2023-09-19T11:21:54;9.05;;;1.95;;
55368;SDS011;41247;49.736;8.752;2023-09-19T11:29:24;6.50;;;1.80;;
55368;SDS011;41247;49.736;8.752;2023-09-19T11:41:06;5.72;;;2.67;;
55368;SDS011;41247;49.736;8.752;2023-09-19T11:49:19;5.88;;;1.45;;
55368;SDS011;41247;49.736;8.752;2023-09-19T11:53:13;4.10;;;1.33;;
55368;SDS011;41247;49.736;8.752;2023-09-19T11:56:54;5.50;;;1.65;;
55368;SDS011;41247;49.736;8.752;2023-09-19T12:00:35;5.47;;;1.30;;
55368;SDS011;41247;49.736;8.752;2023-09-19T12:04:18;8.68;;;1.73;;
55368;SDS011;41247;49.736;8.752;2023-09-19T12:08:18;6.63;;;1.40;;
55368;SDS011;41247;49.736;8.752;2023-09-19T12:11:58;6.88;;;1.48;;
55368;SDS011;41247;49.736;8.752;2023-09-19T12:15:39;5.82;;;1.45;;
55368;SDS011;41247;49.736;8.752;2023-09-19T12:19:20;5.15;;;1.33;;
55368;SDS011;41247;49.736;8.752;2023-09-19T12:23:02;6.30;;;1.55;;
55368;SDS011;41247;49.736;8.752;2023-09-19T12:30:46;5.63;;;1.50;;
55368;SDS011;41247;49.736;8.752;2023-09-19T12:34:27;7.22;;;1.70;;
55368;SDS011;41247;49.736;8.752;2023-09-19T12:38:10;5.28;;;1.30;;
55368;SDS011;41247;49.736;8.752;2023-09-19T12:41:51;6.20;;;1.45;;
55368;SDS011;41247;49.736;8.752;2023-09-19T12:45:32;3.60;;;0.90;;
55368;SDS011;41247;49.736;8.752;2023-09-19T12:49:18;3.25;;;1.23;;
55368;SDS011;41247;49.736;8.752;2023-09-19T12:52:59;3.10;;;1.20;;
55368;SDS011;41247;49.736;8.752;2023-09-19T12:56:40;4.43;;;1.33;;
55368;SDS011;41247;49.736;8.752;2023-09-19T13:00:31;5.70;;;1.23;;
55368;SDS011;41247;49.736;8.752;2023-09-19T13:04:20;2.70;;;1.00;;
55368;SDS011;41247;49.736;8.752;2023-09-19T13:08:05;2.78;;;0.90;;
55368;SDS011;41247;49.736;8.752;2023-09-19T13:16:18;6.43;;;1.38;;
55368;SDS011;41247;49.736;8.752;2023-09-19T13:19:58;4.00;;;1.20;;
55368;SDS011;41247;49.736;8.752;2023-09-19T13:23:39;4.68;;;1.20;;
55368;SDS011;41247;49.736;8.752;2023-09-19T13:27:20;3.95;;;1.20;;
55368;SDS011;41247;49.736;8.752;2023-09-19T13:31:00;2.75;;;0.98;;
55368;SDS011;41247;49.736;8.752;2023-09-19T13:34:41;3.72;;;1.10;;
55368;SDS011;41247;49.736;8.752;2023-09-19T13:38:21;4.13;;;1.20;;
55368;SDS011;41247;49.736;8.752;2023-09-19T13:42:02;3.65;;;1.23;;
55368;SDS011;41247;49.736;8.752;2023-09-19T13:45:43;6.22;;;1.27;;
55368;SDS011;41247;49.736;8.752;2023-09-19T13:49:24;4.03;;;1.00;;
55368;SDS011;41247;49.736;8.752;2023-09-19T13:53:04;4.90;;;1.02;;
55368;SDS011;41247;49.736;8.752;2023-09-19T13:56:45;3.35;;;1.05;;
55368;SDS011;41247;49.736;8.752;2023-09-19T14:04:16;4.18;;;1.38;;
55368;SDS011;41247;49.736;8.752;2023-09-19T14:07:57;6.07;;;1.70;;
55368;SDS011;41247;49.736;8.752;2023-09-19T14:11:39;4.93;;;1.50;;
55368;SDS011;41247;49.736;8.752;2023-09-19T14:15:20;5.80;;;1.20;;
55368;SDS011;41247;49.736;8.752;2023-09-19T14:19:00;4.50;;;1.08;;
55368;SDS011;41247;49.736;8.752;2023-09-19T14:22:41;5.40;;;1.45;;
55368;SDS011;41247;49.736;8.752;2023-09-19T14:26:21;5.10;;;1.15;;
55368;SDS011;41247;49.736;8.752;2023-09-19T14:30:02;3.47;;;1.10;;
55368;SDS011;41247;49.736;8.752;2023-09-19T14:33:43;2.88;;;1.05;;
55368;SDS011;41247;49.736;8.752;2023-09-19T14:37:24;5.15;;;0.90;;
55368;SDS011;41247;49.736;8.752;2023-09-19T14:41:05;3.22;;;1.15;;
55368;SDS011;41247;49.736;8.752;2023-09-19T14:44:46;3.28;;;1.00;;
55368;SDS011;41247;49.736;8.752;2023-09-19T14:48:26;4.25;;;1.23;;
55368;SDS011;41247;49.736;8.752;2023-09-19T14:52:08;5.28;;;1.17;;
55368;SDS011;41247;49.736;8.752;2023-09-19T14:55:50;5.07;;;1.10;;
55368;SDS011;41247;49.736;8.752;2023-09-19T14:59:31;3.40;;;1.17;;
55368;SDS011;41247;49.736;8.752;2023-09-19T15:03:21;2.80;;;1.20;;
55368;SDS011;41247;49.736;8.752;2023-09-19T15:07:01;2.38;;;1.00;;
55368;SDS011;41247;49.736;8.752;2023-09-19T15:10:48;3.05;;;1.30;;
55368;SDS011;41247;49.736;8.752;2023-09-19T15:14:30;3.65;;;1.00;;
55368;SDS011;41247;49.736;8.752;2023-09-19T15:18:10;6.00;;;1.42;;
55368;SDS011;41247;49.736;8.752;2023-09-19T15:21:51;4.10;;;1.13;;
55368;SDS011;41247;49.736;8.752;2023-09-19T15:25:32;2.72;;;1.10;;
55368;SDS011;41247;49.736;8.752;2023-09-19T15:29:12;2.50;;;1.05;;
55368;SDS011;41247;49.736;8.752;2023-09-19T15:32:53;3.58;;;0.90;;
55368;SDS011;41247;49.736;8.752;2023-09-19T15:36:34;2.33;;;1.00;;
55368;SDS011;41247;49.736;8.752;2023-09-19T15:40:14;4.93;;;1.00;;
55368;SDS011;41247;49.736;8.752;2023-09-19T15:43:55;5.47;;;1.10;;
55368;SDS011;41247;49.736;8.752;2023-09-19T15:47:38;2.90;;;0.90;;
55368;SDS011;41247;49.736;8.752;2023-09-19T15:51:19;5.82;;;1.08;;
55368;SDS011;41247;49.736;8.752;2023-09-19T15:55:00;2.08;;;1.00;;
55368;SDS011;41247;49.736;8.752;2023-09-19T16:02:24;3.10;;;0.80;;
55368;SDS011;41247;49.736;8.752;2023-09-19T16:06:11;2.35;;;0.98;;
55368;SDS011;41247;49.736;8.752;2023-09-19T16:09:57;4.75;;;1.25;;
55368;SDS011;41247;49.736;8.752;2023-09-19T16:13:38;5.25;;;1.10;;
55368;SDS011;41247;49.736;8.752;2023-09-19T16:17:20;3.55;;;0.82;;
55368;SDS011;41247;49.736;8.752;2023-09-19T16:21:01;3.42;;;1.05;;
55368;SDS011;41247;49.736;8.752;2023-09-19T16:24:43;2.47;;;0.83;;
55368;SDS011;41247;49.736;8.752;2023-09-19T16:28:24;3.08;;;0.90;;
55368;SDS011;41247;49.736;8.752;2023-09-19T16:32:04;6.28;;;1.10;;
55368;SDS011;41247;49.736;8.752;2023-09-19T16:35:45;2.38;;;1.02;;
55368;SDS011;41247;49.736;8.752;2023-09-19T16:39:25;2.63;;;0.80;;
55368;SDS011;41247;49.736;8.752;2023-09-19T16:43:06;4.25;;;1.02;;
55368;SDS011;41247;49.736;8.752;2023-09-19T16:46:49;5.18;;;1.08;;
55368;SDS011;41247;49.736;8.752;2023-09-19T16:50:31;7.30;;;0.85;;
55368;SDS011;41247;49.736;8.752;2023-09-19T16:54:12;5.65;;;1.27;;
55368;SDS011;41247;49.736;8.752;2023-09-19T16:57:52;1.92;;;0.90;;
55368;SDS011;41247;49.736;8.752;2023-09-19T17:01:33;2.55;;;0.85;;
55368;SDS011;41247;49.736;8.752;2023-09-19T17:05:14;3.80;;;0.95;;
55368;SDS011;41247;49.736;8.752;2023-09-19T17:08:54;4.68;;;1.23;;
55368;SDS011;41247;49.736;8.752;2023-09-19T17:12:35;3.08;;;0.90;;
55368;SDS011;41247;49.736;8.752;2023-09-19T17:16:23;2.78;;;1.10;;
55368;SDS011;41247;49.736;8.752;2023-09-19T17:20:05;3.83;;;0.90;;
55368;SDS011;41247;49.736;8.752;2023-09-19T17:23:46;9.88;;;1.10;;
55368;SDS011;41247;49.736;8.752;2023-09-19T17:27:27;2.67;;;1.10;;
55368;SDS011;41247;49.736;8.752;2023-09-19T17:31:09;4.25;;;1.33;;
55368;SDS011;41247;49.736;8.752;2023-09-19T17:34:55;4.75;;;1.00;;
55368;SDS011;41247;49.736;8.752;2023-09-19T17:38:36;3.55;;;1.00;;
55368;SDS011;41247;49.736;8.752;2023-09-19T17:42:17;1.30;;;0.68;;
55368;SDS011;41247;49.736;8.752;2023-09-19T17:46:04;2.72;;;0.90;;
55368;SDS011;41247;49.736;8.752;2023-09-19T17:49:56;2.83;;;1.10;;
55368;SDS011;41247;49.736;8.752;2023-09-19T17:53:37;3.72;;;0.98;;
55368;SDS011;41247;49.736;8.752;2023-09-19T17:57:19;1.75;;;0.82;;
55368;SDS011;41247;49.736;8.752;2023-09-19T18:01:07;4.80;;;0.98;;
55368;SDS011;41247;49.736;8.752;2023-09-19T18:04:55;2.90;;;1.05;;
55368;SDS011;41247;49.736;8.752;2023-09-19T18:08:36;4.03;;;1.10;;
55368;SDS011;41247;49.736;8.752;2023-09-19T18:12:18;2.90;;;0.95;;
55368;SDS011;41247;49.736;8.752;2023-09-19T18:15:58;2.85;;;0.90;;
55368;SDS011;41247;49.736;8.752;2023-09-19T18:19:39;2.15;;;0.80;;
55368;SDS011;41247;49.736;8.752;2023-09-19T18:23:19;2.80;;;1.10;;
55368;SDS011;41247;49.736;8.752;2023-09-19T18:27:00;3.33;;;1.13;;
55368;SDS011;41247;49.736;8.752;2023-09-19T18:30:42;3.00;;;1.10;;
55368;SDS011;41247;49.736;8.752;2023-09-19T18:34:23;6.57;;;1.10;;
55368;SDS011;41247;49.736;8.752;2023-09-19T19:10:25;1.95;;;0.93;;
55368;SDS011;41247;49.736;8.752;2023-09-19T19:23:22;2.83;;;1.10;;
55368;SDS011;41247;49.736;8.752;2023-09-19T21:26:38;3.50;;;1.00;;
55368;SDS011;41247;49.736;8.752;2023-09-19T21:34:50;2.83;;;1.00;;
55368;SDS011;41247;49.736;8.752;2023-09-19T21:52:24;1.83;;;1.00;;
55368;SDS011;41247;49.736;8.752;2023-09-19T22:05:24;3.70;;;0.93;;
55368;SDS011;41247;49.736;8.752;2023-09-19T22:33:39;2.50;;;1.20;;
55368;SDS011;41247;49.736;8.752;2023-09-19T22:37:24;3.30;;;1.10;;
55368;SDS011;41247;49.736;8.752;2023-09-19T22:41:18;3.28;;;1.13;;
55368;SDS011;41247;49.736;8.752;2023-09-19T22:45:31;2.45;;;0.95;;
55368;SDS011;41247;49.736;8.752;2023-09-19T22:53:59;3.00;;;0.70;;
55368;SDS011;41247;49.736;8.752;2023-09-19T23:09:09;5.43;;;1.23;;
55368;SDS011;41247;49.736;8.752;2023-09-19T23:34:31;5.00;;;1.30;;
55368;SDS011;41247;49.736;8.752;2023-09-19T23:38:30;4.65;;;1.42;;
55368;SDS011;41247;49.736;8.752;2023-09-19T23:42:39;2.05;;;0.80;;
55368;SDS011;41247;49.736;8.752;2023-09-19T23:46:37;1.58;;;0.90;;
55368;SDS011;41247;49.736;8.752;2023-09-19T23:50:20;1.75;;;0.85;;
55368;SDS011;41247;49.736;8.752;2023-09-19T23:54:14;3.55;;;1.02;;
